createdAt,value
2022-08-17T00:00:16.575Z,22.6
2022-08-17T00:05:08.005Z,22.6
2022-08-17T00:10:07.750Z,22.3
2022-08-17T00:15:10.466Z,22.3
2022-08-17T00:20:08.511Z,22.3
2022-08-17T00:25:08.223Z,22.3
2022-08-17T00:30:08.003Z,22.5
2022-08-17T00:35:07.680Z,22.5
2022-08-17T00:40:08.542Z,22.5
2022-08-17T00:45:08.311Z,22.5
2022-08-17T00:50:08.052Z,22.3
2022-08-17T00:55:07.799Z,22.3
2022-08-17T01:00:08.504Z,22.1
2022-08-17T01:05:08.272Z,22.1
2022-08-17T01:10:08.026Z,22.1
2022-08-17T01:15:08.465Z,22.1
2022-08-17T01:20:08.171Z,22.0
2022-08-17T01:25:07.874Z,22.0
2022-08-17T01:30:57.851Z,21.7
2022-08-17T01:35:08.058Z,21.7
2022-08-17T01:40:07.773Z,21.5
2022-08-17T01:45:08.561Z,21.5
2022-08-17T01:50:08.271Z,21.5
2022-08-17T01:55:07.971Z,21.5
2022-08-17T02:00:07.670Z,21.2
2022-08-17T02:05:08.363Z,21.2
2022-08-17T02:10:20.001Z,21.0
2022-08-17T02:15:08.090Z,21.0
2022-08-17T02:20:07.854Z,21.0
2022-08-17T02:25:08.571Z,21.0
2022-08-17T02:31:00.718Z,21.0
2022-08-17T02:35:08.062Z,21.0
2022-08-17T02:40:07.820Z,20.8
2022-08-17T02:45:08.639Z,20.8
2022-08-17T02:50:08.362Z,20.7
2022-08-17T02:55:08.100Z,20.7
2022-08-17T03:00:07.792Z,20.7
2022-08-17T03:05:08.507Z,20.7
2022-08-17T03:10:08.229Z,20.7
2022-08-17T03:15:07.906Z,20.7
2022-08-17T03:20:08.596Z,20.8
2022-08-17T03:25:10.638Z,20.8
2022-08-17T03:30:08.561Z,20.7
2022-08-17T03:35:08.282Z,20.7
2022-08-17T03:40:08.080Z,20.7
2022-08-17T03:45:07.804Z,20.7
2022-08-17T03:50:18.496Z,20.7
2022-08-17T03:55:08.155Z,20.7
2022-08-17T04:00:07.856Z,20.7
2022-08-17T04:05:02.647Z,20.7
2022-08-17T04:10:02.555Z,20.6
2022-08-17T04:15:02.525Z,20.6
2022-08-17T04:20:02.331Z,20.6
2022-08-17T04:25:02.166Z,20.6
2022-08-17T04:30:02.317Z,20.3
2022-08-17T04:35:02.149Z,20.3
2022-08-17T04:40:04.068Z,20.2
2022-08-17T04:45:02.293Z,20.2
2022-08-17T04:50:02.159Z,20.3
2022-08-17T04:55:01.976Z,20.3
2022-08-17T05:00:01.856Z,20.3
2022-08-17T05:05:01.915Z,20.3
2022-08-17T05:10:02.884Z,20.6
2022-08-17T05:15:02.871Z,20.6
2022-08-17T05:20:02.887Z,20.6
2022-08-17T05:25:02.869Z,20.7
2022-08-17T05:30:02.785Z,20.8
2022-08-17T05:35:02.756Z,20.8
2022-08-17T05:40:02.740Z,20.8
2022-08-17T05:45:02.735Z,20.8
2022-08-17T05:50:02.563Z,21.0
2022-08-17T05:55:12.430Z,21.0
2022-08-17T06:00:02.210Z,21.0
2022-08-17T06:05:02.044Z,21.3
2022-08-17T06:10:01.874Z,21.3
2022-08-17T06:15:02.715Z,22.0
2022-08-17T06:20:02.649Z,22.0
2022-08-17T06:25:04.190Z,22.0
2022-08-17T06:30:08.390Z,22.0
2022-08-17T06:35:02.268Z,22.7
2022-08-17T06:40:02.207Z,22.7
2022-08-17T06:45:02.159Z,22.7
2022-08-17T06:50:02.046Z,22.7
2022-08-17T06:55:01.952Z,22.7
2022-08-17T07:00:01.757Z,22.7
2022-08-17T07:05:02.630Z,22.7
2022-08-17T07:10:02.486Z,23.2
2022-08-17T07:15:12.341Z,23.2
2022-08-17T07:20:02.389Z,23.3
2022-08-17T07:25:02.345Z,23.3
2022-08-17T07:30:05.641Z,24.2
2022-08-17T07:35:02.030Z,24.2
2022-08-17T07:40:15.314Z,24.2
2022-08-17T07:45:02.420Z,24.2
2022-08-17T07:50:02.362Z,25.3
2022-08-17T07:55:02.402Z,25.3
2022-08-17T08:00:03.178Z,25.0
2022-08-17T08:05:02.569Z,25.0
2022-08-17T08:10:02.488Z,25.7
2022-08-17T08:15:02.445Z,25.7
2022-08-17T08:20:51.432Z,25.7
2022-08-17T08:25:02.559Z,25.7
2022-08-17T08:30:03.015Z,26.5
2022-08-17T08:35:05.617Z,26.5
2022-08-17T08:40:12.607Z,27.3
2022-08-17T08:45:04.557Z,27.3
2022-08-17T08:50:04.380Z,26.7
2022-08-17T08:55:02.058Z,26.7
2022-08-17T09:00:01.991Z,26.7
2022-08-17T09:05:15.011Z,26.7
2022-08-17T09:10:02.567Z,26.5
2022-08-17T09:15:02.520Z,26.5
2022-08-17T09:20:02.341Z,26.1
2022-08-17T09:25:02.163Z,26.1
2022-08-17T09:30:02.039Z,25.8
2022-08-17T09:35:01.999Z,25.8
2022-08-17T09:40:02.343Z,25.3
2022-08-17T09:45:04.170Z,25.3
2022-08-17T09:50:02.042Z,25.3
2022-08-17T09:55:01.914Z,25.3
2022-08-17T10:00:12.680Z,25.6
2022-08-17T10:05:02.616Z,25.6
2022-08-17T10:10:02.583Z,25.6
2022-08-17T10:15:07.919Z,25.6
2022-08-17T10:20:02.192Z,25.7
2022-08-17T10:25:22.236Z,25.7
2022-08-17T10:30:02.692Z,26.7
2022-08-17T10:35:02.724Z,26.7
2022-08-17T10:40:02.838Z,26.2
2022-08-17T10:45:02.851Z,26.2
2022-08-17T10:50:02.810Z,25.7
2022-08-17T10:55:02.801Z,25.7
2022-08-17T11:00:10.229Z,25.7
2022-08-17T11:05:03.269Z,25.7
2022-08-17T11:10:02.368Z,26.2
2022-08-17T11:15:02.171Z,26.0
2022-08-17T11:20:02.027Z,25.6
2022-08-17T11:25:01.874Z,25.2
2022-08-17T11:30:02.999Z,25.0
2022-08-17T11:35:01.872Z,24.8
2022-08-17T11:40:02.763Z,24.8
2022-08-17T11:45:02.571Z,24.6
2022-08-17T11:50:02.368Z,24.5
2022-08-17T11:55:24.163Z,24.2
2022-08-17T12:00:02.583Z,21.3
2022-08-17T12:05:02.404Z,20.1
2022-08-17T12:10:02.204Z,20.2
2022-08-17T12:15:11.056Z,20.2
2022-08-17T12:20:03.030Z,20.3
2022-08-17T12:25:12.363Z,20.7
2022-08-17T12:30:02.127Z,20.2
2022-08-17T12:35:01.872Z,20.3
2022-08-17T12:40:02.634Z,20.3
2022-08-17T12:45:02.481Z,20.7
2022-08-17T12:50:02.386Z,20.3
2022-08-17T12:55:02.347Z,20.6
2022-08-17T13:00:02.277Z,20.2
2022-08-17T13:05:02.251Z,20.2
2022-08-17T13:10:02.140Z,20.2
2022-08-17T13:15:02.071Z,20.2
2022-08-17T13:20:01.995Z,20.2
2022-08-17T13:25:01.921Z,20.7
2022-08-17T13:30:02.900Z,20.7
2022-08-17T13:35:15.406Z,21.0
2022-08-17T13:40:02.411Z,21.0
2022-08-17T13:45:02.648Z,20.7
2022-08-17T13:50:02.600Z,20.6
2022-08-17T13:55:02.563Z,20.7
2022-08-17T14:00:02.361Z,20.7
2022-08-17T14:05:02.162Z,20.7
2022-08-17T14:10:02.513Z,20.7
2022-08-17T14:15:02.412Z,20.8
2022-08-17T14:20:02.186Z,20.8
2022-08-17T14:25:02.053Z,21.2
2022-08-17T14:30:01.958Z,21.2
2022-08-17T14:35:01.959Z,21.2
2022-08-17T14:40:01.909Z,21.5
2022-08-17T14:45:05.181Z,21.5
2022-08-17T14:50:01.945Z,20.8
2022-08-17T14:55:02.821Z,21.3
2022-08-17T15:00:02.639Z,21.6
2022-08-17T15:05:02.484Z,21.6
2022-08-17T15:10:02.765Z,21.6
2022-08-17T15:15:01.715Z,21.6
2022-08-17T15:20:02.485Z,21.6
2022-08-17T15:25:02.330Z,23.2
2022-08-17T15:30:02.123Z,25.2
2022-08-17T15:35:01.958Z,25.3
2022-08-17T15:40:02.024Z,25.3
2022-08-17T15:45:01.938Z,24.8
2022-08-17T15:50:02.837Z,24.8
2022-08-17T15:55:02.657Z,23.3
2022-08-17T16:00:02.599Z,23.3
2022-08-17T16:05:02.602Z,23.2
2022-08-17T16:10:02.530Z,23.2
2022-08-17T16:15:02.482Z,23.1
2022-08-17T16:20:02.392Z,23.1
2022-08-17T16:25:02.227Z,23.1
2022-08-17T16:30:02.136Z,23.1
2022-08-17T16:35:02.118Z,23.2
2022-08-17T16:40:01.957Z,23.6
2022-08-17T16:45:01.829Z,23.6
2022-08-17T16:50:02.697Z,23.8
2022-08-17T16:55:02.597Z,23.8
2022-08-17T17:00:02.326Z,23.6
2022-08-17T17:05:12.142Z,23.6
2022-08-17T17:10:01.938Z,24.3
2022-08-17T17:15:02.793Z,24.3
2022-08-17T17:20:02.685Z,24.7
2022-08-17T17:25:02.475Z,24.7
2022-08-17T17:30:02.341Z,24.2
2022-08-17T17:35:02.149Z,24.2
2022-08-17T17:40:02.067Z,23.7
2022-08-17T17:45:11.874Z,23.7
2022-08-17T17:50:02.861Z,24.6
2022-08-17T17:55:02.663Z,24.6
2022-08-17T18:00:02.523Z,24.0
2022-08-17T18:05:02.400Z,24.0
2022-08-17T18:10:02.158Z,23.2
2022-08-17T18:15:12.591Z,23.2
2022-08-17T18:20:02.401Z,22.1
2022-08-17T18:25:02.203Z,22.1
2022-08-17T18:30:05.855Z,21.8
2022-08-17T18:35:01.874Z,21.8
2022-08-17T18:40:02.898Z,21.6
2022-08-17T18:45:02.916Z,21.6
2022-08-17T18:50:02.246Z,21.3
2022-08-17T18:55:12.173Z,21.3
2022-08-17T19:00:02.212Z,21.0
2022-08-17T19:05:02.087Z,21.0
2022-08-17T19:10:02.001Z,20.7
2022-08-17T19:15:01.848Z,20.7
2022-08-17T19:20:02.646Z,20.6
2022-08-17T19:25:03.736Z,20.6
2022-08-17T19:30:07.563Z,20.7
2022-08-17T19:35:02.156Z,20.7
2022-08-17T19:40:02.111Z,20.2
2022-08-17T19:45:02.031Z,20.2
2022-08-17T19:50:01.867Z,20.2
2022-08-17T19:55:02.678Z,20.2
2022-08-17T20:00:02.520Z,20.0
2022-08-17T20:05:02.372Z,20.0
2022-08-17T20:10:02.180Z,19.7
2022-08-17T20:15:11.996Z,19.7
2022-08-17T20:20:01.791Z,19.7
2022-08-17T20:25:02.576Z,19.7
2022-08-17T20:30:02.376Z,19.5
2022-08-17T20:35:15.016Z,19.5
2022-08-17T20:40:07.876Z,19.5
2022-08-17T20:45:08.597Z,19.5
2022-08-17T20:50:08.302Z,19.2
2022-08-17T20:55:08.035Z,19.2
2022-08-17T21:00:15.865Z,19.2
2022-08-17T21:05:08.569Z,19.2
2022-08-17T21:10:08.554Z,19.1
2022-08-17T21:15:08.268Z,19.1
2022-08-17T21:20:11.513Z,19.0
2022-08-17T21:25:07.963Z,19.0
2022-08-17T21:30:10.263Z,18.8
2022-08-17T21:35:08.570Z,18.8
2022-08-17T21:40:08.349Z,18.7
2022-08-17T21:45:08.133Z,18.7
2022-08-17T21:50:07.867Z,18.7
2022-08-17T21:55:08.580Z,18.7
2022-08-17T22:00:08.310Z,18.6
2022-08-17T22:05:08.005Z,18.6
2022-08-17T22:10:07.713Z,18.6
2022-08-17T22:15:08.421Z,18.6
2022-08-17T22:20:08.093Z,18.6
2022-08-17T22:25:07.790Z,18.6
2022-08-17T22:30:08.513Z,18.5
2022-08-17T22:35:18.185Z,18.5
2022-08-17T22:40:07.959Z,18.2
2022-08-17T22:45:07.644Z,18.2
2022-08-17T22:50:08.384Z,18.2
2022-08-17T22:55:09.303Z,18.2
2022-08-17T23:01:00.395Z,18.2
2022-08-17T23:05:08.145Z,18.2
2022-08-17T23:10:07.847Z,18.5
2022-08-17T23:15:07.724Z,18.5
2022-08-17T23:20:08.583Z,18.2
2022-08-17T23:25:08.296Z,18.2
2022-08-17T23:30:07.982Z,18.6
2022-08-17T23:35:07.916Z,18.6
2022-08-17T23:40:08.733Z,18.6
2022-08-17T23:45:08.492Z,18.6
2022-08-17T23:50:08.194Z,18.5
2022-08-17T23:55:07.966Z,18.5
